Koki Maru No.30 — JD2396 — position and weather

sailwx.info

Track history (hours):
 
Tides and Currents Weather Stations Pressure Air Temp Water Temp Dewpoint Dewpoint Depression Visibility Wind Speed Wind Dir Waves Ship Positions

Koki Maru No.30

Last reported at 2018-Jun-11 07:05 UTC. Time now 2018-Jun-22 00:02 UTC.
Position N 34°25' E 134°19'.
Warning: this ship's position is 10 days out of date.

Length 53 m; draft 3 m.

Type: Tanker. MMSI: 431000173.

Date/timePositionNaut miles runAvg speedWind from/ knotsBaromVisibWave heightAir tempDewpointWater temp
2018-Jun-11 07:05N 34°25' E 134°19'111.6
2018-Jun-11 06:57N 34°25' E 134°21'511.1
2018-Jun-11 06:29N 34°27' E 134°27'511.0
2018-Jun-11 06:00N 34°29' E 134°33'611.2
2018-Jun-11 05:30N 34°31' E 134°39'611.1
2018-Jun-11 04:58N 34°33' E 134°46'510.5
2018-Jun-11 04:30N 34°35' E 134°51'5 9.7
2018-Jun-11 03:58N 34°37' E 134°57'4 7.3
2018-Jun-11 03:25N 34°37' E 135°02'3 7.1
2018-Jun-11 03:00N 34°36' E 135°05'611.4
2018-Jun-11 02:30N 34°37' E 135°12'611.9
2018-Jun-11 02:00N 34°38' E 135°19'5 1.5
2018-Jun-10 22:51N 34°39' E 135°25'2 5.0
2018-Jun-10 22:30N 34°40' E 135°27'0 0.0
2018-Jun-10 19:35N 34°40' E 135°27'0 0.0
2018-Jun-10 17:01N 34°40' E 135°27'0 0.1
2018-Jun-10 16:56N 34°40' E 135°27'0 0.0
2018-Jun-10 15:09N 34°40' E 135°27'0 0.0
2018-Jun-10 14:41N 34°40' E 135°27'0 0.0
2018-Jun-10 13:56N 34°40' E 135°27'0 0.0
2018-Jun-10 13:30N 34°40' E 135°27'0 0.0
2018-Jun-10 12:44N 34°40' E 135°27'0 0.0
2018-Jun-10 12:15N 34°40' E 135°27'0 0.0
2018-Jun-10 11:57N 34°40' E 135°27'0 0.0
2018-Jun-10 11:15N 34°40' E 135°27'0 0.0
2018-Jun-10 10:56N 34°40' E 135°27'0 0.0
2018-Jun-10 10:22N 34°40' E 135°27'0 0.0
2018-Jun-10 09:54N 34°40' E 135°27'0 0.0
2018-Jun-10 09:30N 34°40' E 135°27'0 0.0
2018-Jun-10 08:58N 34°40' E 135°27'0 0.0
2018-Jun-10 08:22N 34°40' E 135°27'0 0.0
2018-Jun-10 07:59N 34°40' E 135°27'0 0.0
2018-Jun-10 07:28N 34°40' E 135°27'0 0.0
2018-Jun-10 07:00N 34°40' E 135°27'0 0.0
2018-Jun-10 06:27N 34°40' E 135°27'0 0.0
2018-Jun-10 05:59N 34°40' E 135°27'0 0.0
2018-Jun-10 05:29N 34°40' E 135°27'0 0.0
2018-Jun-10 05:00N 34°40' E 135°27'0 0.0
2018-Jun-10 04:30N 34°40' E 135°27'0 0.0
2018-Jun-10 03:59N 34°40' E 135°27'0 0.0
2018-Jun-10 03:26N 34°40' E 135°27'0 0.0
2018-Jun-10 02:56N 34°40' E 135°27'0 0.0
2018-Jun-10 02:30N 34°40' E 135°27'0 0.0
2018-Jun-10 01:59N 34°40' E 135°27'0 0.0
2018-Jun-10 01:30N 34°40' E 135°27'0 0.0
2018-Jun-10 01:00N 34°40' E 135°27'0 0.0
2018-Jun-10 00:30N 34°40' E 135°27'0 0.0
2018-Jun-10 00:00N 34°40' E 135°27'0 0.0
2018-Jun-09 23:30N 34°40' E 135°27'0 1.0
2018-Jun-09 23:00N 34°40' E 135°26'4 7.8
2018-Jun-09 22:30N 34°39' E 135°22'1 1.5
2018-Jun-09 22:00N 34°39' E 135°21'0 0.0
2018-Jun-09 21:31N 34°39' E 135°21'0 0.0
2018-Jun-09 21:01N 34°39' E 135°21'0 0.0
2018-Jun-09 20:30N 34°39' E 135°21'0 0.0
2018-Jun-09 20:00N 34°39' E 135°21'0 0.0
2018-Jun-09 19:30N 34°39' E 135°21'0 0.0
2018-Jun-09 19:01N 34°39' E 135°21'0 0.0
2018-Jun-09 18:30N 34°39' E 135°21'0 0.0
2018-Jun-09 18:00N 34°39' E 135°21'0 0.0
2018-Jun-09 17:31N 34°39' E 135°21'0 0.0
2018-Jun-09 16:58N 34°39' E 135°21'0 0.0
2018-Jun-09 16:31N 34°39' E 135°21'0 0.0
2018-Jun-09 16:00N 34°39' E 135°21'0 0.0
2018-Jun-09 15:31N 34°39' E 135°21'7 7.0
2018-Jun-09 14:31N 34°36' E 135°13'510.6
2018-Jun-09 14:00N 34°35' E 135°07'812.0
2018-Jun-09 13:22N 34°36' E 134°58'612.2
2018-Jun-09 12:54N 34°34' E 134°51'511.0
2018-Jun-09 12:27N 34°32' E 134°46'610.8
2018-Jun-09 11:55N 34°33' E 134°39'  
2018-Jun-03 08:57N 34°25' E 134°12'510.6
2018-Jun-03 08:30N 34°24' E 134°18'611.5
2018-Jun-03 08:01N 34°21' E 134°24'611.6
2018-Jun-03 07:30N 34°19' E 134°30'910.4
2018-Jun-03 06:38N 34°14' E 134°40'211.8
2018-Jun-03 06:31N 34°14' E 134°41'0 0.3
2018-Jun-03 06:00N 34°14' E 134°42'0 0.0
2018-Jun-03 05:30N 34°14' E 134°42'0 0.0
2018-Jun-03 04:56N 34°14' E 134°42'0 0.2
2018-Jun-03 04:30N 34°14' E 134°42'1110.9
2018-Jun-03 03:30N 34°05' E 134°49'611.5
2018-Jun-03 03:00N 34°01' E 134°54'611.7
2018-Jun-03 02:28N 33°56' E 134°59'223 6.7
2018-Jun-01 17:02N 34°56' E 139°19'310.9
2018-Jun-01 16:46N 34°57' E 139°22'310.9
2018-Jun-01 16:30N 34°59' E 139°25'511.2
2018-Jun-01 16:01N 35°02' E 139°31'611.5
2018-Jun-01 15:30N 35°05' E 139°37'510.9
2018-Jun-01 15:01N 35°08' E 139°43'611.2
2018-Jun-01 14:31N 35°13' E 139°46'611.5
2018-Jun-01 14:01N 35°18' E 139°44'510.8
2018-Jun-01 13:31N 35°23' E 139°42'611.2
2018-Jun-01 13:00N 35°27' E 139°48'  
Track history (hours):
 
Tides and Currents Weather Stations Pressure Air Temp Water Temp Dewpoint Dewpoint Depression Visibility Wind Speed Wind Dir Waves Ship Positions

Koki Maru No.30

Last reported at 2018-Jun-11 07:05 UTC. Time now 2018-Jun-22 00:02 UTC.
Position N 34°25' E 134°19'.
Warning: this ship's position is 10 days out of date.

Length 53 m; draft 3 m.

Type: Tanker. MMSI: 431000173.

Date/timePositionNaut miles runAvg speedWind from/ knotsBaromVisibWave heightAir tempDewpointWater temp
2018-Jun-11 07:05N 34°25' E 134°19'111.6
2018-Jun-11 06:57N 34°25' E 134°21'511.1
2018-Jun-11 06:29N 34°27' E 134°27'511.0
2018-Jun-11 06:00N 34°29' E 134°33'611.2
2018-Jun-11 05:30N 34°31' E 134°39'611.1
2018-Jun-11 04:58N 34°33' E 134°46'510.5
2018-Jun-11 04:30N 34°35' E 134°51'5 9.7
2018-Jun-11 03:58N 34°37' E 134°57'4 7.3
2018-Jun-11 03:25N 34°37' E 135°02'3 7.1
2018-Jun-11 03:00N 34°36' E 135°05'611.4
2018-Jun-11 02:30N 34°37' E 135°12'611.9
2018-Jun-11 02:00N 34°38' E 135°19'5 1.5
2018-Jun-10 22:51N 34°39' E 135°25'2 5.0
2018-Jun-10 22:30N 34°40' E 135°27'0 0.0
2018-Jun-10 19:35N 34°40' E 135°27'0 0.0
2018-Jun-10 17:01N 34°40' E 135°27'0 0.1
2018-Jun-10 16:56N 34°40' E 135°27'0 0.0
2018-Jun-10 15:09N 34°40' E 135°27'0 0.0
2018-Jun-10 14:41N 34°40' E 135°27'0 0.0
2018-Jun-10 13:56N 34°40' E 135°27'0 0.0
2018-Jun-10 13:30N 34°40' E 135°27'0 0.0
2018-Jun-10 12:44N 34°40' E 135°27'0 0.0
2018-Jun-10 12:15N 34°40' E 135°27'0 0.0
2018-Jun-10 11:57N 34°40' E 135°27'0 0.0
2018-Jun-10 11:15N 34°40' E 135°27'0 0.0
2018-Jun-10 10:56N 34°40' E 135°27'0 0.0
2018-Jun-10 10:22N 34°40' E 135°27'0 0.0
2018-Jun-10 09:54N 34°40' E 135°27'0 0.0
2018-Jun-10 09:30N 34°40' E 135°27'0 0.0
2018-Jun-10 08:58N 34°40' E 135°27'0 0.0
2018-Jun-10 08:22N 34°40' E 135°27'0 0.0
2018-Jun-10 07:59N 34°40' E 135°27'0 0.0
2018-Jun-10 07:28N 34°40' E 135°27'0 0.0
2018-Jun-10 07:00N 34°40' E 135°27'0 0.0
2018-Jun-10 06:27N 34°40' E 135°27'0 0.0
2018-Jun-10 05:59N 34°40' E 135°27'0 0.0
2018-Jun-10 05:29N 34°40' E 135°27'0 0.0
2018-Jun-10 05:00N 34°40' E 135°27'0 0.0
2018-Jun-10 04:30N 34°40' E 135°27'0 0.0
2018-Jun-10 03:59N 34°40' E 135°27'0 0.0
2018-Jun-10 03:26N 34°40' E 135°27'0 0.0
2018-Jun-10 02:56N 34°40' E 135°27'0 0.0
2018-Jun-10 02:30N 34°40' E 135°27'0 0.0
2018-Jun-10 01:59N 34°40' E 135°27'0 0.0
2018-Jun-10 01:30N 34°40' E 135°27'0 0.0
2018-Jun-10 01:00N 34°40' E 135°27'0 0.0
2018-Jun-10 00:30N 34°40' E 135°27'0 0.0
2018-Jun-10 00:00N 34°40' E 135°27'0 0.0
2018-Jun-09 23:30N 34°40' E 135°27'0 1.0
2018-Jun-09 23:00N 34°40' E 135°26'4 7.8
2018-Jun-09 22:30N 34°39' E 135°22'1 1.5
2018-Jun-09 22:00N 34°39' E 135°21'0 0.0
2018-Jun-09 21:31N 34°39' E 135°21'0 0.0
2018-Jun-09 21:01N 34°39' E 135°21'0 0.0
2018-Jun-09 20:30N 34°39' E 135°21'0 0.0
2018-Jun-09 20:00N 34°39' E 135°21'0 0.0
2018-Jun-09 19:30N 34°39' E 135°21'0 0.0
2018-Jun-09 19:01N 34°39' E 135°21'0 0.0
2018-Jun-09 18:30N 34°39' E 135°21'0 0.0
2018-Jun-09 18:00N 34°39' E 135°21'0 0.0
2018-Jun-09 17:31N 34°39' E 135°21'0 0.0
2018-Jun-09 16:58N 34°39' E 135°21'0 0.0
2018-Jun-09 16:31N 34°39' E 135°21'0 0.0
2018-Jun-09 16:00N 34°39' E 135°21'0 0.0
2018-Jun-09 15:31N 34°39' E 135°21'7 7.0
2018-Jun-09 14:31N 34°36' E 135°13'510.6
2018-Jun-09 14:00N 34°35' E 135°07'812.0
2018-Jun-09 13:22N 34°36' E 134°58'612.2
2018-Jun-09 12:54N 34°34' E 134°51'511.0
2018-Jun-09 12:27N 34°32' E 134°46'610.8
2018-Jun-09 11:55N 34°33' E 134°39'  
2018-Jun-03 08:57N 34°25' E 134°12'510.6
2018-Jun-03 08:30N 34°24' E 134°18'611.5
2018-Jun-03 08:01N 34°21' E 134°24'611.6
2018-Jun-03 07:30N 34°19' E 134°30'910.4
2018-Jun-03 06:38N 34°14' E 134°40'211.8
2018-Jun-03 06:31N 34°14' E 134°41'0 0.3
2018-Jun-03 06:00N 34°14' E 134°42'0 0.0
2018-Jun-03 05:30N 34°14' E 134°42'0 0.0
2018-Jun-03 04:56N 34°14' E 134°42'0 0.2
2018-Jun-03 04:30N 34°14' E 134°42'1110.9
2018-Jun-03 03:30N 34°05' E 134°49'611.5
2018-Jun-03 03:00N 34°01' E 134°54'611.7
2018-Jun-03 02:28N 33°56' E 134°59'223 6.7
2018-Jun-01 17:02N 34°56' E 139°19'310.9
2018-Jun-01 16:46N 34°57' E 139°22'310.9
2018-Jun-01 16:30N 34°59' E 139°25'511.2
2018-Jun-01 16:01N 35°02' E 139°31'611.5
2018-Jun-01 15:30N 35°05' E 139°37'510.9
2018-Jun-01 15:01N 35°08' E 139°43'611.2
2018-Jun-01 14:31N 35°13' E 139°46'611.5
2018-Jun-01 14:01N 35°18' E 139°44'510.8
2018-Jun-01 13:31N 35°23' E 139°42'611.2
2018-Jun-01 13:00N 35°27' E 139°48'  

Dump ship's entire track history